sensor_id;sensor_type;location;lat;lon;timestamp;P1;durP1;ratioP1;P2;durP2;ratioP2
39620;SDS011;25309;48.686;9.170;2023-04-03T03:01:11;3.40;;;2.33;;
39620;SDS011;25309;48.686;9.170;2023-04-03T03:03:39;3.23;;;2.20;;
39620;SDS011;25309;48.686;9.170;2023-04-03T03:06:07;3.63;;;2.40;;
39620;SDS011;25309;48.686;9.170;2023-04-03T03:08:35;3.80;;;2.60;;
39620;SDS011;25309;48.686;9.170;2023-04-03T03:11:03;3.40;;;2.60;;
39620;SDS011;25309;48.686;9.170;2023-04-03T03:13:31;3.27;;;2.57;;
39620;SDS011;25309;48.686;9.170;2023-04-03T03:15:59;3.40;;;2.43;;
39620;SDS011;25309;48.686;9.170;2023-04-03T03:18:28;3.73;;;2.50;;
39620;SDS011;25309;48.686;9.170;2023-04-03T03:20:57;4.40;;;2.43;;
39620;SDS011;25309;48.686;9.170;2023-04-03T03:23:26;3.33;;;2.50;;
39620;SDS011;25309;48.686;9.170;2023-04-03T03:25:55;3.33;;;2.53;;
39620;SDS011;25309;48.686;9.170;2023-04-03T03:28:22;2.87;;;2.50;;
39620;SDS011;25309;48.686;9.170;2023-04-03T03:30:50;3.97;;;2.57;;
39620;SDS011;25309;48.686;9.170;2023-04-03T03:33:18;3.93;;;2.57;;
39620;SDS011;25309;48.686;9.170;2023-04-03T03:35:46;3.00;;;2.30;;
39620;SDS011;25309;48.686;9.170;2023-04-03T03:38:13;4.90;;;2.60;;
39620;SDS011;25309;48.686;9.170;2023-04-03T03:40:40;4.30;;;2.50;;
39620;SDS011;25309;48.686;9.170;2023-04-03T03:43:07;3.10;;;2.30;;
39620;SDS011;25309;48.686;9.170;2023-04-03T03:45:34;3.47;;;2.20;;
39620;SDS011;25309;48.686;9.170;2023-04-03T03:48:02;4.40;;;2.20;;
39620;SDS011;25309;48.686;9.170;2023-04-03T03:50:30;3.03;;;2.37;;
39620;SDS011;25309;48.686;9.170;2023-04-03T03:52:58;4.00;;;2.47;;
39620;SDS011;25309;48.686;9.170;2023-04-03T03:55:25;5.60;;;2.40;;
39620;SDS011;25309;48.686;9.170;2023-04-03T03:57:54;2.73;;;2.10;;
39620;SDS011;25309;48.686;9.170;2023-04-03T04:00:21;3.10;;;2.27;;
39620;SDS011;25309;48.686;9.170;2023-04-03T04:02:53;4.80;;;2.47;;
39620;SDS011;25309;48.686;9.170;2023-04-03T04:05:24;5.47;;;2.20;;
39620;SDS011;25309;48.686;9.170;2023-04-03T04:07:52;3.50;;;2.27;;
39620;SDS011;25309;48.686;9.170;2023-04-03T04:10:21;3.93;;;2.27;;
39620;SDS011;25309;48.686;9.170;2023-04-03T04:12:48;2.73;;;2.13;;
39620;SDS011;25309;48.686;9.170;2023-04-03T04:15:20;3.20;;;2.03;;
39620;SDS011;25309;48.686;9.170;2023-04-03T04:17:48;3.33;;;2.20;;
39620;SDS011;25309;48.686;9.170;2023-04-03T04:20:15;2.97;;;2.20;;
39620;SDS011;25309;48.686;9.170;2023-04-03T04:22:42;3.80;;;2.40;;
39620;SDS011;25309;48.686;9.170;2023-04-03T04:25:10;3.33;;;2.30;;
39620;SDS011;25309;48.686;9.170;2023-04-03T04:27:39;4.93;;;2.60;;
39620;SDS011;25309;48.686;9.170;2023-04-03T04:30:07;3.47;;;2.20;;
39620;SDS011;25309;48.686;9.170;2023-04-03T04:32:36;3.07;;;2.47;;
39620;SDS011;25309;48.686;9.170;2023-04-03T04:35:04;3.73;;;2.43;;
39620;SDS011;25309;48.686;9.170;2023-04-03T04:37:34;3.90;;;2.23;;
39620;SDS011;25309;48.686;9.170;2023-04-03T04:40:01;2.97;;;2.30;;
39620;SDS011;25309;48.686;9.170;2023-04-03T04:42:29;3.70;;;2.30;;
39620;SDS011;25309;48.686;9.170;2023-04-03T04:44:57;4.57;;;2.40;;
39620;SDS011;25309;48.686;9.170;2023-04-03T04:47:24;4.53;;;2.53;;
39620;SDS011;25309;48.686;9.170;2023-04-03T04:49:51;3.87;;;2.47;;
39620;SDS011;25309;48.686;9.170;2023-04-03T04:52:19;3.63;;;2.40;;
39620;SDS011;25309;48.686;9.170;2023-04-03T04:54:46;4.03;;;2.47;;
39620;SDS011;25309;48.686;9.170;2023-04-03T04:57:13;3.57;;;2.50;;
39620;SDS011;25309;48.686;9.170;2023-04-03T04:59:40;5.00;;;2.60;;
39620;SDS011;25309;48.686;9.170;2023-04-03T05:02:08;3.33;;;2.27;;
39620;SDS011;25309;48.686;9.170;2023-04-03T05:04:37;2.57;;;2.30;;
39620;SDS011;25309;48.686;9.170;2023-04-03T05:07:10;5.60;;;2.70;;
39620;SDS011;25309;48.686;9.170;2023-04-03T05:09:37;3.80;;;2.13;;
39620;SDS011;25309;48.686;9.170;2023-04-03T05:12:05;3.13;;;1.80;;
39620;SDS011;25309;48.686;9.170;2023-04-03T05:14:38;3.60;;;2.03;;
39620;SDS011;25309;48.686;9.170;2023-04-03T05:17:08;2.90;;;2.03;;
39620;SDS011;25309;48.686;9.170;2023-04-03T05:19:39;5.23;;;2.80;;
39620;SDS011;25309;48.686;9.170;2023-04-03T05:22:08;3.60;;;2.00;;
39620;SDS011;25309;48.686;9.170;2023-04-03T05:24:35;3.23;;;1.90;;
39620;SDS011;25309;48.686;9.170;2023-04-03T05:27:03;3.13;;;2.17;;
39620;SDS011;25309;48.686;9.170;2023-04-03T05:29:32;2.00;;;1.73;;
39620;SDS011;25309;48.686;9.170;2023-04-03T05:32:01;3.93;;;2.57;;
39620;SDS011;25309;48.686;9.170;2023-04-03T05:34:30;3.67;;;2.00;;
39620;SDS011;25309;48.686;9.170;2023-04-03T05:36:57;4.20;;;2.40;;
39620;SDS011;25309;48.686;9.170;2023-04-03T05:39:26;3.70;;;2.17;;
39620;SDS011;25309;48.686;9.170;2023-04-03T05:41:53;4.03;;;2.40;;
39620;SDS011;25309;48.686;9.170;2023-04-03T05:44:21;2.57;;;1.80;;
39620;SDS011;25309;48.686;9.170;2023-04-03T05:46:49;4.40;;;1.80;;
39620;SDS011;25309;48.686;9.170;2023-04-03T05:49:16;2.57;;;1.90;;
39620;SDS011;25309;48.686;9.170;2023-04-03T05:51:45;3.07;;;1.80;;
39620;SDS011;25309;48.686;9.170;2023-04-03T05:54:17;2.53;;;1.93;;
39620;SDS011;25309;48.686;9.170;2023-04-03T05:56:47;2.67;;;1.80;;
39620;SDS011;25309;48.686;9.170;2023-04-03T05:59:14;2.83;;;1.87;;
39620;SDS011;25309;48.686;9.170;2023-04-03T06:01:41;3.63;;;2.03;;
39620;SDS011;25309;48.686;9.170;2023-04-03T06:04:09;3.67;;;2.20;;
39620;SDS011;25309;48.686;9.170;2023-04-03T06:06:45;3.23;;;2.10;;
39620;SDS011;25309;48.686;9.170;2023-04-03T06:09:14;2.90;;;2.20;;
39620;SDS011;25309;48.686;9.170;2023-04-03T06:11:43;3.40;;;2.10;;
39620;SDS011;25309;48.686;9.170;2023-04-03T06:14:10;3.37;;;2.20;;
39620;SDS011;25309;48.686;9.170;2023-04-03T06:16:37;4.33;;;2.10;;
39620;SDS011;25309;48.686;9.170;2023-04-03T06:19:06;2.93;;;2.20;;
39620;SDS011;25309;48.686;9.170;2023-04-03T06:21:35;3.00;;;2.00;;
39620;SDS011;25309;48.686;9.170;2023-04-03T06:24:04;3.80;;;2.10;;
39620;SDS011;25309;48.686;9.170;2023-04-03T06:26:32;2.57;;;2.10;;
39620;SDS011;25309;48.686;9.170;2023-04-03T06:28:59;3.13;;;2.20;;
39620;SDS011;25309;48.686;9.170;2023-04-03T06:31:26;4.37;;;2.40;;
39620;SDS011;25309;48.686;9.170;2023-04-03T06:33:53;3.93;;;2.00;;
39620;SDS011;25309;48.686;9.170;2023-04-03T06:36:20;3.03;;;2.00;;
39620;SDS011;25309;48.686;9.170;2023-04-03T06:38:48;3.60;;;2.20;;
39620;SDS011;25309;48.686;9.170;2023-04-03T06:41:16;3.20;;;2.07;;
39620;SDS011;25309;48.686;9.170;2023-04-03T06:43:43;2.80;;;1.90;;
39620;SDS011;25309;48.686;9.170;2023-04-03T06:46:14;2.70;;;2.17;;
39620;SDS011;25309;48.686;9.170;2023-04-03T06:48:41;3.70;;;2.00;;
39620;SDS011;25309;48.686;9.170;2023-04-03T06:51:12;3.07;;;2.13;;
39620;SDS011;25309;48.686;9.170;2023-04-03T06:53:43;3.73;;;2.20;;
39620;SDS011;25309;48.686;9.170;2023-04-03T06:56:11;3.00;;;1.97;;
39620;SDS011;25309;48.686;9.170;2023-04-03T06:58:40;3.37;;;1.90;;
39620;SDS011;25309;48.686;9.170;2023-04-03T07:01:07;2.60;;;1.87;;
39620;SDS011;25309;48.686;9.170;2023-04-03T07:03:36;2.00;;;1.70;;
39620;SDS011;25309;48.686;9.170;2023-04-03T07:06:03;2.23;;;1.70;;
39620;SDS011;25309;48.686;9.170;2023-04-03T07:08:30;2.90;;;1.70;;
39620;SDS011;25309;48.686;9.170;2023-04-03T07:10:57;3.70;;;1.87;;
39620;SDS011;25309;48.686;9.170;2023-04-03T07:13:24;3.13;;;1.80;;
39620;SDS011;25309;48.686;9.170;2023-04-03T07:15:54;3.23;;;1.90;;
39620;SDS011;25309;48.686;9.170;2023-04-03T07:18:21;2.83;;;1.70;;
39620;SDS011;25309;48.686;9.170;2023-04-03T07:20:48;2.80;;;1.83;;
39620;SDS011;25309;48.686;9.170;2023-04-03T07:23:15;2.43;;;1.80;;
39620;SDS011;25309;48.686;9.170;2023-04-03T07:25:42;4.63;;;1.90;;
39620;SDS011;25309;48.686;9.170;2023-04-03T07:28:10;2.63;;;1.83;;
39620;SDS011;25309;48.686;9.170;2023-04-03T07:30:42;2.93;;;1.87;;
39620;SDS011;25309;48.686;9.170;2023-04-03T07:33:11;3.10;;;1.90;;
39620;SDS011;25309;48.686;9.170;2023-04-03T07:35:39;4.53;;;2.10;;
39620;SDS011;25309;48.686;9.170;2023-04-03T07:38:06;5.90;;;2.00;;
39620;SDS011;25309;48.686;9.170;2023-04-03T07:40:33;3.10;;;1.80;;
39620;SDS011;25309;48.686;9.170;2023-04-03T07:43:01;3.67;;;1.97;;
39620;SDS011;25309;48.686;9.170;2023-04-03T07:45:28;2.43;;;1.80;;
39620;SDS011;25309;48.686;9.170;2023-04-03T07:47:55;3.43;;;1.80;;
39620;SDS011;25309;48.686;9.170;2023-04-03T07:50:24;2.23;;;1.77;;
39620;SDS011;25309;48.686;9.170;2023-04-03T07:52:51;4.10;;;2.10;;
39620;SDS011;25309;48.686;9.170;2023-04-03T07:55:20;4.40;;;1.87;;
39620;SDS011;25309;48.686;9.170;2023-04-03T07:57:47;4.00;;;2.10;;
39620;SDS011;25309;48.686;9.170;2023-04-03T08:00:17;3.13;;;2.10;;
39620;SDS011;25309;48.686;9.170;2023-04-03T08:02:45;3.93;;;2.10;;
39620;SDS011;25309;48.686;9.170;2023-04-03T08:05:17;4.30;;;2.00;;
39620;SDS011;25309;48.686;9.170;2023-04-03T08:07:45;3.90;;;1.90;;
39620;SDS011;25309;48.686;9.170;2023-04-03T08:10:13;3.80;;;1.90;;
39620;SDS011;25309;48.686;9.170;2023-04-03T08:12:41;4.50;;;2.00;;
39620;SDS011;25309;48.686;9.170;2023-04-03T08:15:08;3.10;;;2.20;;
39620;SDS011;25309;48.686;9.170;2023-04-03T08:17:35;4.90;;;2.07;;
39620;SDS011;25309;48.686;9.170;2023-04-03T08:20:03;3.33;;;1.93;;
39620;SDS011;25309;48.686;9.170;2023-04-03T08:22:32;3.37;;;2.00;;
39620;SDS011;25309;48.686;9.170;2023-04-03T08:25:01;4.27;;;2.13;;
39620;SDS011;25309;48.686;9.170;2023-04-03T08:27:28;3.93;;;2.30;;
39620;SDS011;25309;48.686;9.170;2023-04-03T08:29:55;3.43;;;2.20;;
39620;SDS011;25309;48.686;9.170;2023-04-03T08:32:23;4.77;;;2.20;;
39620;SDS011;25309;48.686;9.170;2023-04-03T08:34:50;4.20;;;2.00;;
39620;SDS011;25309;48.686;9.170;2023-04-03T08:37:17;3.43;;;2.10;;
39620;SDS011;25309;48.686;9.170;2023-04-03T08:39:45;2.47;;;1.90;;
39620;SDS011;25309;48.686;9.170;2023-04-03T08:42:16;3.60;;;2.00;;
39620;SDS011;25309;48.686;9.170;2023-04-03T08:44:54;3.63;;;1.90;;
39620;SDS011;25309;48.686;9.170;2023-04-03T08:47:28;3.73;;;2.10;;
39620;SDS011;25309;48.686;9.170;2023-04-03T08:50:01;4.00;;;1.93;;
39620;SDS011;25309;48.686;9.170;2023-04-03T08:52:32;3.33;;;1.90;;
39620;SDS011;25309;48.686;9.170;2023-04-03T08:55:03;2.10;;;1.70;;
39620;SDS011;25309;48.686;9.170;2023-04-03T08:57:34;4.03;;;2.20;;
39620;SDS011;25309;48.686;9.170;2023-04-03T09:00:06;3.23;;;2.00;;
39620;SDS011;25309;48.686;9.170;2023-04-03T09:02:43;4.13;;;2.47;;
39620;SDS011;25309;48.686;9.170;2023-04-03T09:05:14;2.90;;;1.90;;
39620;SDS011;25309;48.686;9.170;2023-04-03T09:07:45;2.77;;;2.00;;
39620;SDS011;25309;48.686;9.170;2023-04-03T09:10:24;3.30;;;2.00;;
39620;SDS011;25309;48.686;9.170;2023-04-03T09:12:57;3.67;;;2.10;;
39620;SDS011;25309;48.686;9.170;2023-04-03T09:15:28;2.80;;;2.13;;
39620;SDS011;25309;48.686;9.170;2023-04-03T09:18:05;3.03;;;2.00;;
39620;SDS011;25309;48.686;9.170;2023-04-03T09:20:41;4.37;;;2.13;;
39620;SDS011;25309;48.686;9.170;2023-04-03T09:23:17;3.23;;;2.20;;
39620;SDS011;25309;48.686;9.170;2023-04-03T09:25:49;4.30;;;2.50;;
39620;SDS011;25309;48.686;9.170;2023-04-03T09:28:21;3.80;;;2.20;;
39620;SDS011;25309;48.686;9.170;2023-04-03T09:30:48;3.60;;;2.00;;
39620;SDS011;25309;48.686;9.170;2023-04-03T09:33:15;2.90;;;2.07;;
39620;SDS011;25309;48.686;9.170;2023-04-03T09:35:43;3.83;;;2.37;;
39620;SDS011;25309;48.686;9.170;2023-04-03T09:38:15;3.43;;;1.90;;
39620;SDS011;25309;48.686;9.170;2023-04-03T09:40:47;4.67;;;2.40;;
39620;SDS011;25309;48.686;9.170;2023-04-03T09:43:24;3.10;;;1.87;;
39620;SDS011;25309;48.686;9.170;2023-04-03T09:45:53;3.87;;;2.10;;
39620;SDS011;25309;48.686;9.170;2023-04-03T09:48:21;5.37;;;2.17;;
39620;SDS011;25309;48.686;9.170;2023-04-03T09:50:56;4.80;;;2.20;;
39620;SDS011;25309;48.686;9.170;2023-04-03T09:53:30;3.60;;;1.93;;
39620;SDS011;25309;48.686;9.170;2023-04-03T09:55:59;4.80;;;2.20;;
39620;SDS011;25309;48.686;9.170;2023-04-03T09:58:28;4.03;;;2.00;;
39620;SDS011;25309;48.686;9.170;2023-04-03T10:01:20;3.53;;;2.30;;
39620;SDS011;25309;48.686;9.170;2023-04-03T10:04:01;3.10;;;1.80;;
39620;SDS011;25309;48.686;9.170;2023-04-03T10:06:35;3.47;;;2.17;;
39620;SDS011;25309;48.686;9.170;2023-04-03T10:09:13;2.77;;;1.97;;
39620;SDS011;25309;48.686;9.170;2023-04-03T10:11:58;3.17;;;2.10;;
39620;SDS011;25309;48.686;9.170;2023-04-03T10:14:29;4.80;;;2.17;;
39620;SDS011;25309;48.686;9.170;2023-04-03T10:16:58;3.00;;;1.70;;
39620;SDS011;25309;48.686;9.170;2023-04-03T10:19:41;2.77;;;1.60;;
39620;SDS011;25309;48.686;9.170;2023-04-03T10:22:21;2.33;;;1.63;;
39620;SDS011;25309;48.686;9.170;2023-04-03T10:24:58;2.43;;;1.60;;
39620;SDS011;25309;48.686;9.170;2023-04-03T10:27:41;4.27;;;1.90;;
39620;SDS011;25309;48.686;9.170;2023-04-03T10:30:20;1.80;;;1.50;;
39620;SDS011;25309;48.686;9.170;2023-04-03T10:32:59;3.87;;;1.87;;
39620;SDS011;25309;48.686;9.170;2023-04-03T10:35:41;4.50;;;2.17;;
39620;SDS011;25309;48.686;9.170;2023-04-03T10:38:13;2.87;;;1.60;;
39620;SDS011;25309;48.686;9.170;2023-04-03T10:40:46;4.73;;;1.80;;
39620;SDS011;25309;48.686;9.170;2023-04-03T10:43:20;2.67;;;1.60;;
39620;SDS011;25309;48.686;9.170;2023-04-03T10:45:55;2.53;;;1.40;;
39620;SDS011;25309;48.686;9.170;2023-04-03T10:48:31;3.67;;;1.60;;
39620;SDS011;25309;48.686;9.170;2023-04-03T10:51:10;4.10;;;1.80;;
39620;SDS011;25309;48.686;9.170;2023-04-03T10:53:48;2.37;;;1.77;;
39620;SDS011;25309;48.686;9.170;2023-04-03T10:56:24;2.73;;;1.60;;
39620;SDS011;25309;48.686;9.170;2023-04-03T10:58:58;3.40;;;1.70;;
39620;SDS011;25309;48.686;9.170;2023-04-03T11:01:37;4.10;;;1.90;;
39620;SDS011;25309;48.686;9.170;2023-04-03T11:04:07;3.10;;;1.80;;
39620;SDS011;25309;48.686;9.170;2023-04-03T11:06:37;3.17;;;1.90;;
39620;SDS011;25309;48.686;9.170;2023-04-03T11:09:11;3.43;;;1.50;;
39620;SDS011;25309;48.686;9.170;2023-04-03T11:11:46;4.23;;;2.20;;
39620;SDS011;25309;48.686;9.170;2023-04-03T11:14:17;4.03;;;1.70;;
39620;SDS011;25309;48.686;9.170;2023-04-03T11:16:53;2.43;;;1.70;;
39620;SDS011;25309;48.686;9.170;2023-04-03T11:19:29;4.80;;;2.23;;
39620;SDS011;25309;48.686;9.170;2023-04-03T11:22:02;5.23;;;1.97;;
39620;SDS011;25309;48.686;9.170;2023-04-03T11:24:36;3.07;;;1.40;;
39620;SDS011;25309;48.686;9.170;2023-04-03T11:27:08;2.27;;;1.60;;
39620;SDS011;25309;48.686;9.170;2023-04-03T11:29:42;3.70;;;1.77;;
39620;SDS011;25309;48.686;9.170;2023-04-03T11:32:20;3.70;;;1.80;;
39620;SDS011;25309;48.686;9.170;2023-04-03T11:35:00;3.57;;;1.53;;
39620;SDS011;25309;48.686;9.170;2023-04-03T11:37:31;3.70;;;1.60;;
39620;SDS011;25309;48.686;9.170;2023-04-03T11:40:04;2.33;;;1.60;;
39620;SDS011;25309;48.686;9.170;2023-04-03T11:42:36;3.53;;;1.80;;
39620;SDS011;25309;48.686;9.170;2023-04-03T11:45:17;4.40;;;1.90;;
39620;SDS011;25309;48.686;9.170;2023-04-03T11:47:56;2.20;;;1.50;;
39620;SDS011;25309;48.686;9.170;2023-04-03T11:50:39;8.07;;;3.43;;
39620;SDS011;25309;48.686;9.170;2023-04-03T11:59:15;3.77;;;1.57;;
39620;SDS011;25309;48.686;9.170;2023-04-03T12:01:49;2.90;;;1.50;;
39620;SDS011;25309;48.686;9.170;2023-04-03T12:04:19;3.97;;;1.40;;
39620;SDS011;25309;48.686;9.170;2023-04-03T12:06:52;3.67;;;1.63;;
39620;SDS011;25309;48.686;9.170;2023-04-03T12:12:58;2.63;;;1.40;;
39620;SDS011;25309;48.686;9.170;2023-04-03T12:21:24;2.53;;;1.50;;
39620;SDS011;25309;48.686;9.170;2023-04-03T12:24:30;3.97;;;1.63;;
39620;SDS011;25309;48.686;9.170;2023-04-03T12:30:14;2.77;;;1.23;;
39620;SDS011;25309;48.686;9.170;2023-04-03T12:32:50;2.67;;;1.70;;
39620;SDS011;25309;48.686;9.170;2023-04-03T12:35:40;4.67;;;1.70;;
39620;SDS011;25309;48.686;9.170;2023-04-03T12:38:29;3.83;;;1.40;;
39620;SDS011;25309;48.686;9.170;2023-04-03T12:41:19;2.53;;;1.67;;
39620;SDS011;25309;48.686;9.170;2023-04-03T12:46:45;2.03;;;1.30;;
39620;SDS011;25309;48.686;9.170;2023-04-03T12:49:18;2.50;;;1.40;;
39620;SDS011;25309;48.686;9.170;2023-04-03T12:51:56;3.67;;;1.80;;
39620;SDS011;25309;48.686;9.170;2023-04-03T12:54:26;3.40;;;1.70;;
39620;SDS011;25309;48.686;9.170;2023-04-03T12:57:08;3.10;;;1.70;;
39620;SDS011;25309;48.686;9.170;2023-04-03T12:59:36;3.10;;;1.83;;
39620;SDS011;25309;48.686;9.170;2023-04-03T13:02:09;2.40;;;1.50;;
39620;SDS011;25309;48.686;9.170;2023-04-03T13:04:43;4.37;;;1.47;;
39620;SDS011;25309;48.686;9.170;2023-04-03T13:07:18;2.07;;;1.50;;
39620;SDS011;25309;48.686;9.170;2023-04-03T13:09:57;2.60;;;1.30;;
39620;SDS011;25309;48.686;9.170;2023-04-03T13:12:26;3.13;;;1.77;;
39620;SDS011;25309;48.686;9.170;2023-04-03T13:14:55;2.50;;;1.60;;
39620;SDS011;25309;48.686;9.170;2023-04-03T13:17:25;3.57;;;1.60;;
39620;SDS011;25309;48.686;9.170;2023-04-03T13:19:54;3.57;;;1.50;;
39620;SDS011;25309;48.686;9.170;2023-04-03T13:22:24;2.87;;;1.50;;
39620;SDS011;25309;48.686;9.170;2023-04-03T13:24:57;4.43;;;1.60;;
39620;SDS011;25309;48.686;9.170;2023-04-03T13:27:29;2.73;;;1.43;;
39620;SDS011;25309;48.686;9.170;2023-04-03T13:29:57;1.73;;;1.40;;
39620;SDS011;25309;48.686;9.170;2023-04-03T13:32:27;2.23;;;1.20;;
39620;SDS011;25309;48.686;9.170;2023-04-03T13:34:56;3.07;;;1.50;;
39620;SDS011;25309;48.686;9.170;2023-04-03T13:37:52;3.37;;;1.63;;
39620;SDS011;25309;48.686;9.170;2023-04-03T13:40:23;2.30;;;1.43;;
39620;SDS011;25309;48.686;9.170;2023-04-03T13:42:59;4.27;;;1.63;;
39620;SDS011;25309;48.686;9.170;2023-04-03T13:45:31;1.53;;;1.40;;
39620;SDS011;25309;48.686;9.170;2023-04-03T13:48:08;4.87;;;1.67;;
39620;SDS011;25309;48.686;9.170;2023-04-03T13:50:50;2.20;;;1.40;;
39620;SDS011;25309;48.686;9.170;2023-04-03T13:53:24;1.77;;;1.33;;
39620;SDS011;25309;48.686;9.170;2023-04-03T13:55:55;4.40;;;1.70;;
39620;SDS011;25309;48.686;9.170;2023-04-03T13:58:24;1.87;;;1.37;;
39620;SDS011;25309;48.686;9.170;2023-04-03T14:00:53;2.47;;;1.53;;
39620;SDS011;25309;48.686;9.170;2023-04-03T14:03:22;2.43;;;1.43;;
39620;SDS011;25309;48.686;9.170;2023-04-03T14:05:50;3.97;;;1.50;;
39620;SDS011;25309;48.686;9.170;2023-04-03T14:08:18;3.37;;;1.80;;
39620;SDS011;25309;48.686;9.170;2023-04-03T14:10:59;3.00;;;1.37;;
39620;SDS011;25309;48.686;9.170;2023-04-03T14:13:26;3.10;;;1.60;;
39620;SDS011;25309;48.686;9.170;2023-04-03T14:15:55;3.13;;;1.67;;
39620;SDS011;25309;48.686;9.170;2023-04-03T14:18:31;3.47;;;1.73;;
39620;SDS011;25309;48.686;9.170;2023-04-03T14:20:58;3.20;;;1.37;;
39620;SDS011;25309;48.686;9.170;2023-04-03T14:23:25;1.77;;;1.50;;
39620;SDS011;25309;48.686;9.170;2023-04-03T14:25:51;2.40;;;1.50;;
39620;SDS011;25309;48.686;9.170;2023-04-03T14:28:21;2.20;;;1.60;;
39620;SDS011;25309;48.686;9.170;2023-04-03T14:30:49;2.80;;;1.50;;
39620;SDS011;25309;48.686;9.170;2023-04-03T14:33:18;1.80;;;1.47;;
39620;SDS011;25309;48.686;9.170;2023-04-03T14:35:47;3.40;;;1.63;;
39620;SDS011;25309;48.686;9.170;2023-04-03T14:38:20;3.37;;;1.80;;
39620;SDS011;25309;48.686;9.170;2023-04-03T14:40:49;3.70;;;1.70;;
39620;SDS011;25309;48.686;9.170;2023-04-03T14:43:17;2.97;;;1.70;;
39620;SDS011;25309;48.686;9.170;2023-04-03T14:45:46;2.87;;;1.80;;
39620;SDS011;25309;48.686;9.170;2023-04-03T14:48:15;3.13;;;1.60;;
39620;SDS011;25309;48.686;9.170;2023-04-03T14:50:45;3.73;;;1.77;;
39620;SDS011;25309;48.686;9.170;2023-04-03T14:53:30;3.30;;;1.60;;
39620;SDS011;25309;48.686;9.170;2023-04-03T14:56:05;3.23;;;1.70;;
39620;SDS011;25309;48.686;9.170;2023-04-03T14:58:38;2.77;;;1.60;;
39620;SDS011;25309;48.686;9.170;2023-04-03T15:01:08;2.23;;;1.73;;
39620;SDS011;25309;48.686;9.170;2023-04-03T15:03:36;3.80;;;1.47;;
39620;SDS011;25309;48.686;9.170;2023-04-03T15:06:03;2.10;;;1.70;;
39620;SDS011;25309;48.686;9.170;2023-04-03T15:08:31;2.33;;;1.67;;
39620;SDS011;25309;48.686;9.170;2023-04-03T15:10:58;4.17;;;1.77;;
39620;SDS011;25309;48.686;9.170;2023-04-03T15:13:25;3.20;;;1.77;;
39620;SDS011;25309;48.686;9.170;2023-04-03T15:15:52;3.23;;;1.83;;
39620;SDS011;25309;48.686;9.170;2023-04-03T15:18:22;3.63;;;2.00;;
39620;SDS011;25309;48.686;9.170;2023-04-03T15:20:50;3.57;;;2.07;;
39620;SDS011;25309;48.686;9.170;2023-04-03T15:23:17;3.47;;;1.90;;
39620;SDS011;25309;48.686;9.170;2023-04-03T15:25:44;4.07;;;1.80;;
39620;SDS011;25309;48.686;9.170;2023-04-03T15:28:16;3.90;;;1.80;;
39620;SDS011;25309;48.686;9.170;2023-04-03T15:30:47;3.30;;;2.03;;
39620;SDS011;25309;48.686;9.170;2023-04-03T15:33:15;2.83;;;1.60;;
39620;SDS011;25309;48.686;9.170;2023-04-03T15:35:43;1.77;;;1.50;;
39620;SDS011;25309;48.686;9.170;2023-04-03T15:38:10;3.13;;;1.60;;
39620;SDS011;25309;48.686;9.170;2023-04-03T15:40:37;2.73;;;1.70;;
39620;SDS011;25309;48.686;9.170;2023-04-03T15:43:04;2.80;;;1.77;;
39620;SDS011;25309;48.686;9.170;2023-04-03T15:45:32;3.23;;;2.00;;
39620;SDS011;25309;48.686;9.170;2023-04-03T15:48:01;2.70;;;1.70;;
39620;SDS011;25309;48.686;9.170;2023-04-03T15:50:29;2.80;;;1.80;;
39620;SDS011;25309;48.686;9.170;2023-04-03T15:52:57;3.30;;;1.63;;
39620;SDS011;25309;48.686;9.170;2023-04-03T15:55:25;5.43;;;1.73;;
39620;SDS011;25309;48.686;9.170;2023-04-03T15:57:52;2.83;;;1.80;;
39620;SDS011;25309;48.686;9.170;2023-04-03T16:00:20;3.07;;;2.10;;
39620;SDS011;25309;48.686;9.170;2023-04-03T16:02:48;2.40;;;1.87;;
39620;SDS011;25309;48.686;9.170;2023-04-03T16:05:18;3.43;;;1.70;;
39620;SDS011;25309;48.686;9.170;2023-04-03T16:07:45;3.00;;;1.53;;
39620;SDS011;25309;48.686;9.170;2023-04-03T16:10:15;3.47;;;1.80;;
39620;SDS011;25309;48.686;9.170;2023-04-03T16:12:43;3.40;;;1.70;;
39620;SDS011;25309;48.686;9.170;2023-04-03T16:15:10;1.93;;;1.40;;
39620;SDS011;25309;48.686;9.170;2023-04-03T16:17:38;2.27;;;1.50;;
39620;SDS011;25309;48.686;9.170;2023-04-03T16:20:10;3.10;;;1.80;;
39620;SDS011;25309;48.686;9.170;2023-04-03T16:22:39;2.53;;;1.50;;
39620;SDS011;25309;48.686;9.170;2023-04-03T16:25:07;3.70;;;1.80;;
39620;SDS011;25309;48.686;9.170;2023-04-03T16:27:36;2.47;;;1.87;;
39620;SDS011;25309;48.686;9.170;2023-04-03T16:30:05;2.53;;;1.60;;
39620;SDS011;25309;48.686;9.170;2023-04-03T16:32:33;3.27;;;1.67;;
39620;SDS011;25309;48.686;9.170;2023-04-03T16:35:01;3.03;;;1.53;;
39620;SDS011;25309;48.686;9.170;2023-04-03T16:37:30;3.33;;;1.53;;
39620;SDS011;25309;48.686;9.170;2023-04-03T16:39:58;2.87;;;1.77;;
39620;SDS011;25309;48.686;9.170;2023-04-03T16:42:25;2.13;;;1.57;;
39620;SDS011;25309;48.686;9.170;2023-04-03T16:44:53;4.77;;;1.70;;
39620;SDS011;25309;48.686;9.170;2023-04-03T16:47:20;2.87;;;1.70;;
39620;SDS011;25309;48.686;9.170;2023-04-03T16:49:47;3.20;;;1.60;;
39620;SDS011;25309;48.686;9.170;2023-04-03T16:52:14;4.03;;;1.70;;
39620;SDS011;25309;48.686;9.170;2023-04-03T16:54:41;2.23;;;1.67;;
39620;SDS011;25309;48.686;9.170;2023-04-03T16:57:08;2.97;;;1.80;;
39620;SDS011;25309;48.686;9.170;2023-04-03T16:59:35;3.17;;;1.60;;
39620;SDS011;25309;48.686;9.170;2023-04-03T17:02:03;3.17;;;1.50;;
39620;SDS011;25309;48.686;9.170;2023-04-03T17:04:30;3.13;;;1.80;;
39620;SDS011;25309;48.686;9.170;2023-04-03T17:06:57;2.30;;;1.47;;
39620;SDS011;25309;48.686;9.170;2023-04-03T17:09:26;2.27;;;1.70;;
39620;SDS011;25309;48.686;9.170;2023-04-03T17:11:53;2.63;;;1.80;;
39620;SDS011;25309;48.686;9.170;2023-04-03T17:14:20;2.87;;;1.60;;
39620;SDS011;25309;48.686;9.170;2023-04-03T17:16:47;4.53;;;1.60;;
39620;SDS011;25309;48.686;9.170;2023-04-03T17:19:15;3.17;;;1.50;;
39620;SDS011;25309;48.686;9.170;2023-04-03T17:21:43;3.53;;;1.60;;
39620;SDS011;25309;48.686;9.170;2023-04-03T17:24:11;3.10;;;2.00;;
39620;SDS011;25309;48.686;9.170;2023-04-03T17:26:39;2.03;;;1.53;;
39620;SDS011;25309;48.686;9.170;2023-04-03T17:29:07;2.30;;;1.87;;
39620;SDS011;25309;48.686;9.170;2023-04-03T17:31:34;2.87;;;1.63;;
39620;SDS011;25309;48.686;9.170;2023-04-03T17:34:01;4.37;;;1.87;;
39620;SDS011;25309;48.686;9.170;2023-04-03T17:36:30;3.03;;;1.67;;
39620;SDS011;25309;48.686;9.170;2023-04-03T17:38:58;3.03;;;1.80;;
39620;SDS011;25309;48.686;9.170;2023-04-03T17:41:26;4.93;;;2.10;;
39620;SDS011;25309;48.686;9.170;2023-04-03T17:43:53;3.17;;;2.00;;
39620;SDS011;25309;48.686;9.170;2023-04-03T17:46:22;3.13;;;2.10;;
39620;SDS011;25309;48.686;9.170;2023-04-03T17:48:50;2.90;;;2.03;;
39620;SDS011;25309;48.686;9.170;2023-04-03T17:51:19;3.17;;;1.70;;
39620;SDS011;25309;48.686;9.170;2023-04-03T17:53:48;3.73;;;2.40;;
39620;SDS011;25309;48.686;9.170;2023-04-03T17:56:16;4.90;;;2.27;;
39620;SDS011;25309;48.686;9.170;2023-04-03T17:58:44;3.43;;;2.03;;
39620;SDS011;25309;48.686;9.170;2023-04-03T18:01:13;3.03;;;1.70;;
39620;SDS011;25309;48.686;9.170;2023-04-03T18:03:42;3.67;;;2.10;;
39620;SDS011;25309;48.686;9.170;2023-04-03T18:06:11;4.93;;;2.00;;
39620;SDS011;25309;48.686;9.170;2023-04-03T18:08:41;4.47;;;1.80;;
39620;SDS011;25309;48.686;9.170;2023-04-03T18:11:12;4.63;;;2.00;;
39620;SDS011;25309;48.686;9.170;2023-04-03T18:13:40;2.23;;;1.60;;
39620;SDS011;25309;48.686;9.170;2023-04-03T18:16:07;3.23;;;1.90;;
39620;SDS011;25309;48.686;9.170;2023-04-03T18:18:36;2.53;;;1.80;;
39620;SDS011;25309;48.686;9.170;2023-04-03T18:21:03;2.73;;;1.90;;
39620;SDS011;25309;48.686;9.170;2023-04-03T18:23:31;3.17;;;1.90;;
39620;SDS011;25309;48.686;9.170;2023-04-03T18:26:00;3.37;;;2.10;;
39620;SDS011;25309;48.686;9.170;2023-04-03T18:28:30;4.33;;;1.97;;